createdAt,value
2018-03-15T05:05:52.126Z,3
2018-03-15T05:06:22.165Z,0
2018-03-15T05:06:52.182Z,3
2018-03-15T05:14:22.701Z,7
2018-03-15T05:16:52.885Z,10
2018-03-15T05:18:52.975Z,13
2018-03-15T05:20:23.012Z,17
2018-03-15T05:21:53.124Z,20
2018-03-15T05:22:53.174Z,23
2018-03-15T05:23:23.198Z,27
2018-03-15T05:25:53.358Z,30
2018-03-15T05:26:53.483Z,33
2018-03-15T05:27:23.499Z,37
2018-03-15T05:28:23.516Z,40
2018-03-15T05:29:23.619Z,43
2018-03-15T05:30:23.678Z,50
2018-03-15T05:30:53.709Z,53
2018-03-15T05:31:23.729Z,57
2018-03-15T05:32:23.791Z,60
2018-03-15T05:33:53.906Z,57
2018-03-15T05:34:23.886Z,60
2018-03-15T05:34:53.935Z,63
2018-03-15T05:35:23.926Z,70
2018-03-15T05:35:53.946Z,73
2018-03-15T05:36:24.000Z,77
2018-03-15T05:36:54.026Z,80
2018-03-15T05:37:54.079Z,83
2018-03-15T05:38:24.113Z,80
2018-03-15T05:38:54.174Z,87
2018-03-15T05:39:24.250Z,90
2018-03-15T05:39:54.192Z,97
2018-03-15T05:40:24.252Z,103
2018-03-15T05:40:54.307Z,117
2018-03-15T05:41:24.355Z,123
2018-03-15T05:41:54.364Z,127
2018-03-15T05:42:24.396Z,137
2018-03-15T05:43:24.451Z,133
2018-03-15T05:44:24.530Z,140
2018-03-15T05:44:54.524Z,147
2018-03-15T05:45:24.590Z,150
2018-03-15T05:45:54.572Z,147
2018-03-15T05:46:24.694Z,143
2018-03-15T05:46:54.699Z,147
2018-03-15T05:47:24.710Z,153
2018-03-15T05:47:54.686Z,157
2018-03-15T05:48:24.743Z,167
2018-03-15T05:48:54.776Z,177
2018-03-15T05:49:24.821Z,167
2018-03-15T05:49:54.815Z,160
2018-03-15T05:50:24.874Z,170
2018-03-15T05:50:54.923Z,173
2018-03-15T05:51:24.947Z,183
2018-03-15T05:51:54.941Z,193
2018-03-15T05:52:25.024Z,200
2018-03-15T05:52:54.991Z,213
2018-03-15T05:53:25.032Z,220
2018-03-15T05:53:55.098Z,223
2018-03-15T05:54:25.109Z,233
2018-03-15T05:54:55.135Z,247
2018-03-15T05:55:55.200Z,253
2018-03-15T05:56:55.268Z,257
2018-03-15T05:57:25.295Z,267
2018-03-15T05:58:25.339Z,257
2018-03-15T05:58:55.385Z,260
2018-03-15T05:59:25.479Z,253
2018-03-15T05:59:55.439Z,267
2018-03-15T06:00:25.528Z,273
2018-03-15T06:00:55.504Z,280
2018-03-15T06:01:25.575Z,283
2018-03-15T06:01:55.601Z,273
2018-03-15T06:02:25.623Z,277
2018-03-15T06:02:55.677Z,273
2018-03-15T06:03:25.673Z,280
2018-03-15T06:03:55.735Z,307
2018-03-15T06:04:25.748Z,317
2018-03-15T06:04:55.775Z,313
2018-03-15T06:05:25.805Z,310
2018-03-15T06:05:55.795Z,347
2018-03-15T06:06:25.864Z,333
2018-03-15T06:06:55.864Z,317
2018-03-15T06:07:25.939Z,337
2018-03-15T06:07:56.015Z,343
2018-03-15T06:08:26.006Z,383
2018-03-15T06:08:55.971Z,427
2018-03-15T06:09:26.054Z,423
2018-03-15T06:09:56.039Z,417
2018-03-15T06:10:26.142Z,427
2018-03-15T06:11:26.138Z,450
2018-03-15T06:11:56.219Z,443
2018-03-15T06:12:26.237Z,447
2018-03-15T06:12:56.217Z,453
2018-03-15T06:13:26.334Z,483
2018-03-15T06:13:56.421Z,520
2018-03-15T06:14:26.371Z,537
2018-03-15T06:14:56.396Z,497
2018-03-15T06:15:26.424Z,470
2018-03-15T06:16:26.501Z,483
2018-03-15T06:16:56.511Z,517
2018-03-15T06:17:26.553Z,553
2018-03-15T06:17:56.517Z,627
2018-03-15T06:18:26.603Z,663
2018-03-15T06:18:56.621Z,650
2018-03-15T06:19:26.696Z,643
2018-03-15T06:19:56.691Z,617
2018-03-15T06:20:26.702Z,613
2018-03-15T06:20:56.736Z,597
2018-03-15T06:21:26.768Z,633
2018-03-15T06:21:56.768Z,643
2018-03-15T06:22:26.824Z,630
2018-03-15T06:22:56.866Z,647
2018-03-15T06:23:26.921Z,640
2018-03-15T06:23:56.912Z,630
2018-03-15T06:24:56.959Z,640
2018-03-15T06:25:26.999Z,683
2018-03-15T06:25:57.018Z,680
2018-03-15T06:26:27.058Z,650
2018-03-15T06:26:57.075Z,657
2018-03-15T06:27:27.127Z,693
2018-03-15T06:27:57.181Z,720
2018-03-15T06:28:27.189Z,780
2018-03-15T06:28:57.238Z,840
2018-03-15T06:29:27.264Z,813
2018-03-15T06:29:57.263Z,823
2018-03-15T06:30:27.375Z,817
2018-03-15T06:30:57.345Z,840
2018-03-15T06:31:57.438Z,817
2018-03-15T06:32:27.478Z,780
2018-03-15T06:32:57.494Z,787
2018-03-15T06:33:27.560Z,817
2018-03-15T06:33:57.546Z,837
2018-03-15T06:34:27.615Z,773
2018-03-15T06:34:57.594Z,770
2018-03-15T06:35:27.686Z,747
2018-03-15T06:35:57.641Z,770
2018-03-15T06:36:27.672Z,830
2018-03-15T06:36:57.728Z,820
2018-03-15T06:37:27.743Z,880
2018-03-15T06:37:57.798Z,860
2018-03-15T06:38:27.857Z,850
2018-03-15T06:38:57.835Z,830
2018-03-15T06:39:27.858Z,840
2018-03-15T06:40:27.925Z,873
2018-03-15T06:40:58.028Z,850
2018-03-15T06:41:27.984Z,843
2018-03-15T06:41:58.033Z,853
2018-03-15T06:42:28.067Z,887
2018-03-15T06:42:58.061Z,940
2018-03-15T06:43:28.112Z,977
2018-03-15T06:43:58.128Z,987
2018-03-15T06:44:28.186Z,950
2018-03-15T06:44:58.198Z,977
2018-03-15T06:45:28.261Z,997
2018-03-15T06:45:58.259Z,1027
2018-03-15T06:46:28.317Z,1043
2018-03-15T06:46:58.341Z,1023
2018-03-15T06:47:28.435Z,1040
2018-03-15T06:47:58.453Z,977
2018-03-15T06:48:28.448Z,963
2018-03-15T06:48:58.503Z,953
2018-03-15T06:49:28.562Z,980
2018-03-15T06:49:58.522Z,970
2018-03-15T06:50:28.576Z,983
2018-03-15T06:50:58.627Z,1017
2018-03-15T06:51:28.626Z,1067
2018-03-15T06:51:58.625Z,1090
2018-03-15T06:52:28.771Z,1080
2018-03-15T06:52:58.716Z,1097
2018-03-15T06:53:28.740Z,1077
2018-03-15T06:53:58.780Z,1080
2018-03-15T06:54:28.827Z,1147
2018-03-15T06:54:58.848Z,1190
2018-03-15T06:55:28.935Z,1210
2018-03-15T06:55:58.928Z,1270
2018-03-15T06:56:28.996Z,1310
2018-03-15T06:56:58.989Z,1363
2018-03-15T06:57:29.013Z,1387
2018-03-15T06:57:59.091Z,1310
2018-03-15T06:58:29.024Z,1257
2018-03-15T06:58:59.094Z,1250
2018-03-15T06:59:29.099Z,1290
2018-03-15T06:59:59.135Z,1387
2018-03-15T07:00:59.248Z,1463
2018-03-15T07:01:29.207Z,1493
2018-03-15T07:01:59.278Z,1500
2018-03-15T07:02:29.284Z,1640
2018-03-15T07:02:59.309Z,1717
2018-03-15T07:03:29.334Z,1787
2018-03-15T07:03:59.398Z,1677
2018-03-15T07:04:29.443Z,1860
2018-03-15T07:04:59.465Z,1863
2018-03-15T07:05:29.509Z,2027
2018-03-15T07:05:59.508Z,2210
2018-03-15T07:06:29.545Z,2340
2018-03-15T07:06:59.546Z,2313
2018-03-15T07:07:29.620Z,2457
2018-03-15T07:07:59.602Z,2533
2018-03-15T07:08:29.653Z,2443
2018-03-15T07:08:59.665Z,2187
2018-03-15T07:09:29.762Z,2057
2018-03-15T07:09:59.740Z,2130
2018-03-15T07:10:29.830Z,2307
2018-03-15T07:10:59.813Z,2833
2018-03-15T07:11:29.834Z,3057
2018-03-15T07:11:59.879Z,3847
2018-03-15T07:12:29.896Z,4000
2018-03-15T07:12:59.913Z,4103
2018-03-15T07:13:29.962Z,4680
2018-03-15T07:13:59.973Z,4843
2018-03-15T07:14:30.009Z,5223
2018-03-15T07:15:00.062Z,4950
2018-03-15T07:15:30.072Z,4750
2018-03-15T07:16:01.111Z,5457
2018-03-15T07:16:30.174Z,5090
2018-03-15T07:17:00.274Z,5103
2018-03-15T07:17:30.265Z,5433
2018-03-15T07:18:01.219Z,5390
2018-03-15T07:18:30.298Z,5987
2018-03-15T07:19:00.770Z,5593
2018-03-15T07:19:30.367Z,5243
2018-03-15T07:20:01.178Z,4920
2018-03-15T07:20:30.386Z,5163
2018-03-15T07:21:01.042Z,6590
2018-03-15T07:21:30.457Z,6843
2018-03-15T07:22:01.159Z,7480
2018-03-15T07:22:30.549Z,9153
2018-03-15T07:23:01.332Z,6563
2018-03-15T07:23:30.580Z,7297
2018-03-15T07:24:00.791Z,7857
2018-03-15T07:24:30.635Z,7503
2018-03-15T07:25:01.860Z,7370
2018-03-15T07:25:30.699Z,7033
2018-03-15T07:26:01.272Z,7230
2018-03-15T07:26:30.783Z,6663
2018-03-15T07:27:01.372Z,4753
2018-03-15T07:27:30.815Z,4727
2018-03-15T07:28:00.834Z,5857
2018-03-15T07:28:30.874Z,7077
2018-03-15T07:29:01.267Z,6230
2018-03-15T07:29:31.535Z,6223
2018-03-15T07:30:01.308Z,6633
2018-03-15T07:30:31.011Z,6490
2018-03-15T07:31:01.106Z,7343
2018-03-15T07:31:31.176Z,6717
2018-03-15T07:32:01.075Z,6603
2018-03-15T07:32:31.139Z,5453
2018-03-15T07:33:01.127Z,5353
2018-03-15T07:33:31.177Z,7363
2018-03-15T07:34:01.201Z,5887
2018-03-15T07:34:31.254Z,7507
2018-03-15T07:35:01.256Z,6060
2018-03-15T07:35:31.334Z,5597
2018-03-15T07:36:01.347Z,6150
2018-03-15T07:36:31.440Z,7343
2018-03-15T07:37:01.389Z,6467
2018-03-15T07:37:32.161Z,5977
2018-03-15T07:38:01.495Z,5577
2018-03-15T07:38:31.556Z,5690
2018-03-15T07:39:01.509Z,5983
2018-03-15T07:39:31.576Z,5867
2018-03-15T07:40:01.560Z,7210
2018-03-15T07:40:31.642Z,7883
2018-03-15T07:41:01.705Z,11300
2018-03-15T07:41:31.715Z,9580
2018-03-15T07:42:01.719Z,5887
2018-03-15T07:42:31.808Z,5660
2018-03-15T07:43:01.752Z,5600
2018-03-15T07:43:31.881Z,5913
2018-03-15T07:44:01.863Z,6840
2018-03-15T07:44:31.887Z,6803
2018-03-15T07:45:01.877Z,7123
2018-03-15T07:45:31.946Z,6930
2018-03-15T07:46:02.024Z,6440
2018-03-15T07:46:32.009Z,6567
2018-03-15T07:47:02.085Z,6323
2018-03-15T07:47:32.106Z,7633
2018-03-15T07:48:02.114Z,9770
2018-03-15T07:48:32.182Z,10117
2018-03-15T07:49:02.110Z,7080
2018-03-15T07:49:32.199Z,7797
2018-03-15T07:50:02.266Z,7843
2018-03-15T07:50:32.291Z,6743
2018-03-15T07:51:02.307Z,6897
2018-03-15T07:51:32.744Z,9117
2018-03-15T07:52:02.368Z,10413
2018-03-15T07:52:32.386Z,11137
2018-03-15T07:53:02.375Z,11667
2018-03-15T07:53:32.448Z,10870
2018-03-15T07:54:02.457Z,11580
2018-03-15T07:54:32.486Z,12123
2018-03-15T07:55:02.753Z,13013
2018-03-15T07:55:32.532Z,11933
2018-03-15T07:56:02.615Z,12267
2018-03-15T07:56:32.611Z,11803
2018-03-15T07:57:02.629Z,10080
2018-03-15T07:57:32.665Z,13710
2018-03-15T07:58:02.671Z,12830
2018-03-15T07:58:32.711Z,7877
2018-03-15T07:59:02.779Z,11053
2018-03-15T07:59:32.772Z,10197
2018-03-15T08:00:02.829Z,14840
2018-03-15T08:00:32.872Z,11980
2018-03-15T08:01:02.854Z,7310
2018-03-15T08:01:32.900Z,17963
2018-03-15T08:02:02.924Z,14610
2018-03-15T08:02:32.973Z,16227
2018-03-15T08:03:02.974Z,17443
2018-03-15T08:03:33.065Z,15243
2018-03-15T08:04:03.039Z,17127
2018-03-15T08:04:33.085Z,15940
2018-03-15T08:05:03.153Z,17310
2018-03-15T08:05:33.153Z,19240
2018-03-15T08:06:03.167Z,10733
2018-03-15T08:06:33.288Z,18300
2018-03-15T08:07:03.253Z,8783
2018-03-15T08:07:33.274Z,17710
2018-03-15T08:08:03.330Z,21593
2018-03-15T08:08:33.330Z,21507
2018-03-15T08:09:03.375Z,20887
2018-03-15T08:09:33.398Z,18017
2018-03-15T08:10:03.514Z,19700
2018-03-15T08:10:33.469Z,20433
2018-03-15T08:11:03.524Z,20333
2018-03-15T08:11:33.594Z,6347
2018-03-15T08:12:03.556Z,5890
2018-03-15T08:12:34.589Z,16963
2018-03-15T08:13:03.608Z,15490
2018-03-15T08:13:33.643Z,11180
2018-03-15T08:14:03.671Z,8560
2018-03-15T08:14:33.762Z,7293
2018-03-15T08:15:03.737Z,6907
2018-03-15T08:15:33.775Z,8930
2018-03-15T08:16:03.829Z,7140
2018-03-15T08:16:33.897Z,6327
2018-03-15T08:17:03.838Z,6453
2018-03-15T08:17:33.886Z,6983
2018-03-15T08:18:03.903Z,7247
2018-03-15T08:18:33.942Z,6500
2018-03-15T08:19:03.967Z,6263
2018-03-15T08:19:34.020Z,5360
2018-03-15T08:20:04.026Z,5667
2018-03-15T08:20:34.089Z,7040
2018-03-15T08:21:04.122Z,11990
2018-03-15T08:21:34.196Z,8313
2018-03-15T08:22:04.144Z,6600
2018-03-15T08:22:34.232Z,6200
2018-03-15T08:23:04.289Z,6310
2018-03-15T08:23:34.283Z,9620
2018-03-15T08:24:04.284Z,8170
2018-03-15T08:24:34.334Z,8137
2018-03-15T08:25:04.393Z,7990
2018-03-15T08:25:34.379Z,7467
2018-03-15T08:26:04.424Z,7930
2018-03-15T08:26:34.547Z,9257
2018-03-15T08:27:04.470Z,26690
2018-03-15T08:27:34.539Z,14837
2018-03-15T08:28:04.557Z,10193
2018-03-15T08:28:34.650Z,9580
2018-03-15T08:29:04.638Z,7497
2018-03-15T08:29:34.678Z,8323
2018-03-15T08:30:04.658Z,14080
2018-03-15T08:30:34.715Z,23893
2018-03-15T08:31:04.717Z,24243
2018-03-15T08:31:34.813Z,10993
2018-03-15T08:32:04.817Z,8307
2018-03-15T08:32:34.862Z,14697
2018-03-15T08:33:04.870Z,21700
2018-03-15T08:33:34.911Z,24503
2018-03-15T08:34:04.924Z,11523
2018-03-15T08:34:35.001Z,14833
2018-03-15T08:35:05.219Z,25757
2018-03-15T08:35:35.053Z,12537
2018-03-15T08:36:05.031Z,21357
2018-03-15T08:36:35.143Z,27327
2018-03-15T08:37:05.100Z,28597
2018-03-15T08:37:35.167Z,29450
2018-03-15T08:38:05.172Z,28803
2018-03-15T08:38:35.220Z,22370
2018-03-15T08:39:05.248Z,11677
2018-03-15T08:39:35.332Z,18973
2018-03-15T08:40:05.333Z,10823
2018-03-15T08:40:35.407Z,13390
2018-03-15T08:41:05.343Z,10217
2018-03-15T08:41:35.476Z,10677
2018-03-15T08:42:05.453Z,17483
2018-03-15T08:42:35.466Z,24967
2018-03-15T08:43:05.495Z,19510
2018-03-15T08:43:35.543Z,10443
2018-03-15T08:44:05.507Z,11457
2018-03-15T08:44:35.550Z,11537
2018-03-15T08:45:05.585Z,9110
2018-03-15T08:45:35.653Z,8133
2018-03-15T08:46:05.632Z,8040
2018-03-15T08:46:35.721Z,8453
2018-03-15T08:47:05.675Z,8167
2018-03-15T08:47:35.722Z,8907
2018-03-15T08:48:05.735Z,7873
2018-03-15T08:48:35.800Z,6837
2018-03-15T08:49:05.809Z,7070
2018-03-15T08:49:36.090Z,7710
2018-03-15T08:50:05.867Z,10650
2018-03-15T08:50:35.908Z,28777
2018-03-15T08:51:05.927Z,21260
2018-03-15T08:51:36.046Z,32120
2018-03-15T08:52:05.987Z,30060
2018-03-15T08:52:36.028Z,22557
2018-03-15T08:53:06.052Z,13053
2018-03-15T08:53:36.127Z,29297
2018-03-15T08:54:06.167Z,30063
2018-03-15T08:54:36.167Z,13483
2018-03-15T08:55:06.252Z,12920
2018-03-15T08:55:36.285Z,10513
2018-03-15T08:56:06.228Z,16073
2018-03-15T08:56:36.369Z,11103
2018-03-15T08:57:06.323Z,8810
2018-03-15T08:57:36.382Z,8633
2018-03-15T08:58:06.366Z,7390
2018-03-15T08:58:36.399Z,26693
2018-03-15T08:59:06.489Z,25920
2018-03-15T08:59:36.536Z,28640
2018-03-15T09:00:06.526Z,32080
2018-03-15T09:00:36.572Z,26467
2018-03-15T09:01:06.571Z,32483
2018-03-15T09:01:36.645Z,30050
2018-03-15T09:02:06.619Z,31567
2018-03-15T09:02:36.662Z,32027
2018-03-15T09:03:06.665Z,22270
2018-03-15T09:03:36.715Z,29357
2018-03-15T09:04:06.813Z,29163
2018-03-15T09:04:37.164Z,15830
2018-03-15T09:05:06.782Z,15517
2018-03-15T09:05:36.837Z,32710
2018-03-15T09:06:06.932Z,32293
2018-03-15T09:06:36.945Z,17947
2018-03-15T09:07:06.917Z,12560
2018-03-15T09:07:36.979Z,18487
2018-03-15T09:08:06.982Z,20300
2018-03-15T09:08:37.028Z,24597
2018-03-15T09:09:07.103Z,19767
2018-03-15T09:09:37.100Z,20217
2018-03-15T09:10:07.182Z,9060
2018-03-15T09:10:37.138Z,7430
2018-03-15T09:11:07.184Z,15733
2018-03-15T09:11:37.282Z,13543
2018-03-15T09:12:07.250Z,12880
2018-03-15T09:12:37.279Z,11670
2018-03-15T09:13:07.312Z,10137
2018-03-15T09:13:37.394Z,8303
2018-03-15T09:14:07.372Z,7987
2018-03-15T09:14:37.427Z,8037
2018-03-15T09:15:07.482Z,10610
2018-03-15T09:15:37.504Z,29523
2018-03-15T09:16:07.513Z,33410
2018-03-15T09:16:37.585Z,10527
2018-03-15T09:17:07.598Z,7557
2018-03-15T09:17:37.610Z,7447
2018-03-15T09:18:07.668Z,7957
2018-03-15T09:18:37.698Z,9347
2018-03-15T09:19:07.695Z,10330
2018-03-15T09:19:37.739Z,11150
2018-03-15T09:20:07.777Z,20620
2018-03-15T09:20:37.822Z,23767
2018-03-15T09:21:07.818Z,10747
2018-03-15T09:21:37.884Z,8823
2018-03-15T09:22:07.936Z,11257
2018-03-15T09:22:37.940Z,10747
2018-03-15T09:23:07.962Z,11427
2018-03-15T09:23:38.002Z,16487
2018-03-15T09:24:07.996Z,12103
2018-03-15T09:24:38.053Z,8683
2018-03-15T09:25:08.139Z,7673
2018-03-15T09:25:38.088Z,6940
2018-03-15T09:26:08.116Z,9793
2018-03-15T09:26:38.269Z,15967
2018-03-15T09:27:08.207Z,36040
2018-03-15T09:27:38.273Z,29007
2018-03-15T09:28:08.292Z,25640
2018-03-15T09:28:38.299Z,11320
2018-03-15T09:29:08.319Z,31657
2018-03-15T09:29:38.366Z,12470
2018-03-15T09:30:08.386Z,9963
2018-03-15T09:30:38.421Z,10120
2018-03-15T09:31:08.471Z,12157
2018-03-15T09:31:38.469Z,16770
2018-03-15T09:32:08.483Z,23533
2018-03-15T09:32:38.510Z,14010
2018-03-15T09:33:08.566Z,11770
2018-03-15T09:33:38.614Z,12477
2018-03-15T09:34:08.593Z,15237
2018-03-15T09:34:38.619Z,12240
2018-03-15T09:35:08.719Z,21563
2018-03-15T09:35:38.714Z,11950
2018-03-15T09:36:08.726Z,10077
2018-03-15T09:36:38.748Z,9733
2018-03-15T09:37:08.784Z,9237
2018-03-15T09:37:38.818Z,9070
2018-03-15T09:38:08.818Z,10703
2018-03-15T09:38:38.861Z,18247
2018-03-15T09:39:08.883Z,24090
2018-03-15T09:39:38.940Z,19653
2018-03-15T09:40:08.965Z,10447
2018-03-15T09:40:38.996Z,10157
2018-03-15T09:41:09.001Z,11057
2018-03-15T09:41:39.048Z,18120
2018-03-15T09:42:09.068Z,8993
2018-03-15T09:42:39.153Z,7677
2018-03-15T09:43:09.148Z,6410
2018-03-15T09:43:39.227Z,6193
2018-03-15T09:44:09.188Z,5830
2018-03-15T09:44:39.280Z,5970
2018-03-15T09:45:09.274Z,6367
2018-03-15T09:45:39.346Z,7160
2018-03-15T09:46:09.421Z,6567
2018-03-15T09:46:39.361Z,6713
2018-03-15T09:47:09.399Z,7063
2018-03-15T09:47:39.433Z,6980
2018-03-15T09:48:09.463Z,7077
2018-03-15T09:48:39.487Z,7300
2018-03-15T09:49:09.527Z,7460
2018-03-15T09:49:39.571Z,7160
2018-03-15T09:50:09.649Z,6980
2018-03-15T09:50:39.623Z,6287
2018-03-15T09:51:09.641Z,6260
2018-03-15T09:52:09.674Z,6347
2018-03-15T09:52:39.775Z,6637
2018-03-15T09:53:09.767Z,6630
2018-03-15T09:53:39.800Z,6557
2018-03-15T09:54:09.803Z,6897
2018-03-15T09:54:39.896Z,7327
2018-03-15T09:55:09.880Z,7483
2018-03-15T09:55:39.917Z,7093
2018-03-15T09:56:09.939Z,6777
2018-03-15T09:56:39.980Z,7077
2018-03-15T09:57:09.989Z,6993
2018-03-15T09:57:40.023Z,6463
2018-03-15T09:58:10.056Z,5943
2018-03-15T09:58:40.409Z,5833
2018-03-15T09:59:10.131Z,5780
2018-03-15T09:59:40.238Z,5920
2018-03-15T10:00:10.229Z,6267
2018-03-15T10:00:40.300Z,6753
2018-03-15T10:01:10.344Z,7000
2018-03-15T10:01:40.295Z,7513
2018-03-15T10:02:10.313Z,7943
2018-03-15T10:02:40.377Z,8873
2018-03-15T10:03:10.407Z,9323
2018-03-15T10:03:40.492Z,9433
2018-03-15T10:04:10.415Z,9397
2018-03-15T10:04:40.472Z,9807
2018-03-15T10:05:10.523Z,10167
2018-03-15T10:05:40.543Z,9523
2018-03-15T10:06:10.638Z,8843
2018-03-15T10:06:40.613Z,8857
2018-03-15T10:07:10.613Z,8657
2018-03-15T10:07:40.654Z,8583
2018-03-15T10:08:10.664Z,8767
2018-03-15T10:08:40.714Z,8527
2018-03-15T10:09:10.730Z,9160
2018-03-15T10:09:40.829Z,11050
2018-03-15T10:10:10.817Z,16297
2018-03-15T10:10:40.830Z,17383
2018-03-15T10:11:10.962Z,13247
2018-03-15T10:11:40.929Z,9780
2018-03-15T10:12:10.939Z,8303
2018-03-15T10:12:40.976Z,8010
2018-03-15T10:13:11.031Z,8147
2018-03-15T10:13:41.079Z,8190
2018-03-15T10:14:11.067Z,7890
2018-03-15T10:14:41.132Z,7533
2018-03-15T10:15:11.151Z,7350
2018-03-15T10:15:41.184Z,7303
2018-03-15T10:16:11.210Z,7497
2018-03-15T10:16:41.295Z,7830
2018-03-15T10:17:11.239Z,7377
2018-03-15T10:17:41.323Z,7260
2018-03-15T10:18:11.307Z,7560
2018-03-15T10:18:41.329Z,11403
2018-03-15T10:19:11.339Z,8820
2018-03-15T10:19:41.416Z,8933
2018-03-15T10:20:11.472Z,9773
2018-03-15T10:20:41.506Z,11977
2018-03-15T10:21:11.558Z,14313
2018-03-15T10:21:41.524Z,12353
2018-03-15T10:22:11.605Z,11143
2018-03-15T10:22:41.589Z,9450
2018-03-15T10:23:11.585Z,8840
2018-03-15T10:23:41.654Z,8763
2018-03-15T10:24:11.657Z,14117
2018-03-15T10:24:41.737Z,10880
2018-03-15T10:25:13.883Z,10330
2018-03-15T10:25:41.775Z,11037
2018-03-15T10:26:11.836Z,9647
2018-03-15T10:26:41.820Z,9510
2018-03-15T10:27:11.855Z,10197
2018-03-15T10:27:41.879Z,11260
2018-03-15T10:28:11.927Z,11060
2018-03-15T10:28:41.934Z,11180
2018-03-15T10:29:11.955Z,10087
2018-03-15T10:29:42.016Z,9900
2018-03-15T10:30:12.113Z,10373
2018-03-15T10:30:42.098Z,10097
2018-03-15T10:31:12.081Z,10333
2018-03-15T10:31:42.119Z,11270
2018-03-15T10:32:12.177Z,11360
2018-03-15T10:32:42.199Z,10283
2018-03-15T10:33:12.200Z,10307
2018-03-15T10:33:42.243Z,9183
2018-03-15T10:34:12.356Z,8490
2018-03-15T10:34:42.356Z,8283
2018-03-15T10:35:12.351Z,8637
2018-03-15T10:35:42.540Z,11353
2018-03-15T10:36:12.409Z,10890
2018-03-15T10:36:42.440Z,9383
2018-03-15T10:37:12.493Z,8890
2018-03-15T10:37:42.516Z,8690
2018-03-15T10:38:12.563Z,9427
2018-03-15T10:38:42.642Z,13243
2018-03-15T10:39:12.589Z,13100
2018-03-15T10:39:42.660Z,11063
2018-03-15T10:40:12.700Z,10010
2018-03-15T10:40:42.731Z,8547
2018-03-15T10:41:12.709Z,8560
2018-03-15T10:41:42.765Z,9047
2018-03-15T10:42:12.883Z,10227
2018-03-15T10:42:42.798Z,13673
2018-03-15T10:43:12.838Z,11743
2018-03-15T10:43:42.858Z,11663
2018-03-15T10:44:12.931Z,11293
2018-03-15T10:44:42.923Z,15403
2018-03-15T10:45:13.185Z,16337
2018-03-15T10:45:42.990Z,16157
2018-03-15T10:46:13.006Z,12653
2018-03-15T10:46:43.071Z,12440
2018-03-15T10:47:13.067Z,13320
2018-03-15T10:47:43.119Z,12680
2018-03-15T10:48:13.178Z,15097
2018-03-15T10:48:43.175Z,14280
2018-03-15T10:49:13.232Z,15087
2018-03-15T10:49:43.248Z,15037
2018-03-15T10:50:13.386Z,38223
2018-03-15T10:50:43.291Z,20283
2018-03-15T10:51:13.314Z,14033
2018-03-15T10:51:43.400Z,18233
2018-03-15T10:52:13.374Z,23113
2018-03-15T10:52:43.450Z,17713
2018-03-15T10:53:13.508Z,28693
2018-03-15T10:53:43.486Z,14373
2018-03-15T10:54:13.523Z,12660
2018-03-15T10:54:43.542Z,13337
2018-03-15T10:55:13.630Z,19623
2018-03-15T10:55:43.680Z,17823
2018-03-15T10:56:13.693Z,15140
2018-03-15T10:56:43.748Z,16477
2018-03-15T10:57:13.766Z,13173
2018-03-15T10:57:43.730Z,11330
2018-03-15T10:58:13.797Z,9990
2018-03-15T10:58:43.783Z,8290
2018-03-15T10:59:13.825Z,8013
2018-03-15T10:59:43.899Z,8203
2018-03-15T11:00:13.901Z,8347
2018-03-15T11:00:43.959Z,10970
2018-03-15T11:01:14.248Z,8323
2018-03-15T11:01:44.017Z,7913
2018-03-15T11:02:14.016Z,7323
2018-03-15T11:02:44.060Z,7167
2018-03-15T11:03:14.101Z,6863
2018-03-15T11:03:44.180Z,7087
2018-03-15T11:04:14.182Z,7793
2018-03-15T11:04:44.197Z,7540
2018-03-15T11:05:14.242Z,7627
2018-03-15T11:05:44.251Z,7467
2018-03-15T11:06:14.240Z,7077
2018-03-15T11:06:44.311Z,6767
2018-03-15T11:07:14.338Z,6443
2018-03-15T11:07:44.360Z,6340
2018-03-15T11:08:14.392Z,6373
2018-03-15T11:08:44.441Z,6460
2018-03-15T11:09:14.490Z,6680
2018-03-15T11:09:44.519Z,7000
2018-03-15T11:10:14.500Z,7553
2018-03-15T11:10:44.553Z,8047
2018-03-15T11:11:14.632Z,8320
2018-03-15T11:11:44.591Z,9003
2018-03-15T11:12:14.601Z,10180
2018-03-15T11:12:44.646Z,12403
2018-03-15T11:13:14.683Z,10157
2018-03-15T11:13:44.790Z,10027
2018-03-15T11:14:14.742Z,11993
2018-03-15T11:14:44.819Z,13517
2018-03-15T11:15:14.789Z,10653
2018-03-15T11:15:44.834Z,10863
2018-03-15T11:16:14.852Z,29240
2018-03-15T11:16:44.890Z,9040
2018-03-15T11:17:14.909Z,7830
2018-03-15T11:17:44.988Z,7620
2018-03-15T11:18:14.996Z,7880
2018-03-15T11:18:45.037Z,9243
2018-03-15T11:19:15.031Z,17780
2018-03-15T11:19:45.084Z,8883
2018-03-15T11:20:15.117Z,7877
2018-03-15T11:20:45.192Z,7030
2018-03-15T11:21:15.239Z,6047
2018-03-15T11:21:45.219Z,5797
2018-03-15T11:22:15.252Z,5923
2018-03-15T11:22:45.301Z,5827
2018-03-15T11:23:15.337Z,5857
2018-03-15T11:23:45.525Z,6037
2018-03-15T11:24:15.399Z,5993
2018-03-15T11:24:45.401Z,6070
2018-03-15T11:25:15.441Z,7177
2018-03-15T11:25:45.524Z,9693
2018-03-15T11:26:15.532Z,7217
2018-03-15T11:26:45.538Z,7733
2018-03-15T11:27:15.527Z,8223
2018-03-15T11:27:45.646Z,7467
2018-03-15T11:28:15.604Z,8490
2018-03-15T11:28:45.644Z,12773
2018-03-15T11:29:15.669Z,9717
2018-03-15T11:29:45.739Z,9667
2018-03-15T11:30:15.758Z,8550
2018-03-15T11:30:45.788Z,8373
2018-03-15T11:31:15.777Z,8273
2018-03-15T11:31:45.813Z,8163
2018-03-15T11:32:15.855Z,8017
2018-03-15T11:32:45.886Z,8363
2018-03-15T11:33:15.903Z,8480
2018-03-15T11:33:45.935Z,9457
2018-03-15T11:34:15.959Z,9557
2018-03-15T11:34:46.030Z,11163
2018-03-15T11:35:16.056Z,10043
2018-03-15T11:35:46.055Z,9063
2018-03-15T11:36:16.082Z,10663
2018-03-15T11:36:46.138Z,11000
2018-03-15T11:37:16.174Z,11117
2018-03-15T11:37:46.179Z,13150
2018-03-15T11:38:16.252Z,19847
2018-03-15T11:38:46.270Z,41537
2018-03-15T11:39:16.259Z,24797
2018-03-15T11:39:46.327Z,16993
2018-03-15T11:40:16.389Z,15713
2018-03-15T11:40:46.378Z,14097
2018-03-15T11:41:16.402Z,14067
2018-03-15T11:41:46.751Z,17480
2018-03-15T11:42:16.492Z,21473
2018-03-15T11:42:46.546Z,25033
2018-03-15T11:43:16.556Z,15890
2018-03-15T11:43:46.666Z,16700
2018-03-15T11:44:16.598Z,44460
2018-03-15T11:44:46.663Z,42160
2018-03-15T11:45:16.651Z,43713
2018-03-15T11:45:46.743Z,28283
2018-03-15T11:46:16.721Z,17630
2018-03-15T11:46:46.805Z,34783
2018-03-15T11:47:16.798Z,25210
2018-03-15T11:47:46.834Z,44477
2018-03-15T11:48:16.850Z,42347
2018-03-15T11:48:46.910Z,44523
2018-03-15T11:49:16.941Z,19667
2018-03-15T11:49:47.001Z,39430
2018-03-15T11:50:17.051Z,23737
2018-03-15T11:50:47.031Z,17507
2018-03-15T11:51:17.022Z,15610
2018-03-15T11:51:47.105Z,24407
2018-03-15T11:52:17.103Z,13087
2018-03-15T11:52:47.148Z,16323
2018-03-15T11:53:17.150Z,12410
2018-03-15T11:53:47.413Z,9817
2018-03-15T11:54:17.231Z,8950
2018-03-15T11:54:47.239Z,8383
2018-03-15T11:55:17.312Z,8733
2018-03-15T11:55:47.288Z,8997
2018-03-15T11:56:17.402Z,9173
2018-03-15T11:56:47.356Z,9357
2018-03-15T11:57:17.405Z,9647
2018-03-15T11:57:47.420Z,10460
2018-03-15T11:58:17.482Z,11853
2018-03-15T11:58:47.484Z,11667
2018-03-15T11:59:17.523Z,11257
2018-03-15T11:59:47.535Z,11853
2018-03-15T12:00:17.619Z,9983
2018-03-15T12:00:47.603Z,9317
2018-03-15T12:01:17.624Z,8693
2018-03-15T12:01:47.713Z,7940
2018-03-15T12:02:17.702Z,9457
2018-03-15T12:02:47.766Z,8797
2018-03-15T12:03:17.772Z,8607
2018-03-15T12:03:47.797Z,8113
2018-03-15T12:04:17.798Z,7363
2018-03-15T12:04:47.903Z,7530
2018-03-15T12:05:17.922Z,8100
2018-03-15T12:05:47.941Z,8787
2018-03-15T12:06:18.009Z,9600
2018-03-15T12:06:47.981Z,10917
2018-03-15T12:07:17.982Z,11183
2018-03-15T12:07:48.125Z,11477
2018-03-15T12:08:18.057Z,9460
2018-03-15T12:08:48.135Z,8420